sensor_id;sensor_type;location;lat;lon;timestamp;P1;durP1;ratioP1;P2;durP2;ratioP2
2710;SDS011;20721;47.402;8.550;2022-09-02T00:00:15;8.48;;;8.48;;
2710;SDS011;20721;47.402;8.550;2022-09-02T00:01:14;8.26;;;8.26;;
2710;SDS011;20721;47.402;8.550;2022-09-02T00:03:11;8.30;;;8.30;;
2710;SDS011;20721;47.402;8.550;2022-09-02T00:04:13;9.01;;;9.01;;
2710;SDS011;20721;47.402;8.550;2022-09-02T00:05:10;9.65;;;9.65;;
2710;SDS011;20721;47.402;8.550;2022-09-02T00:06:11;9.49;;;9.49;;
2710;SDS011;20721;47.402;8.550;2022-09-02T00:08:10;8.69;;;8.69;;
2710;SDS011;20721;47.402;8.550;2022-09-02T00:09:12;8.44;;;8.44;;
2710;SDS011;20721;47.402;8.550;2022-09-02T00:10:10;8.16;;;8.16;;
2710;SDS011;20721;47.402;8.550;2022-09-02T00:13:12;8.58;;;8.58;;
2710;SDS011;20721;47.402;8.550;2022-09-02T00:14:15;8.42;;;8.42;;
2710;SDS011;20721;47.402;8.550;2022-09-02T00:15:10;9.41;;;9.41;;
2710;SDS011;20721;47.402;8.550;2022-09-02T00:16:11;8.67;;;8.67;;
2710;SDS011;20721;47.402;8.550;2022-09-02T00:18:11;8.87;;;8.87;;
2710;SDS011;20721;47.402;8.550;2022-09-02T00:19:12;8.03;;;8.03;;
2710;SDS011;20721;47.402;8.550;2022-09-02T00:21:11;8.42;;;8.42;;
2710;SDS011;20721;47.402;8.550;2022-09-02T00:22:10;8.93;;;8.93;;
2710;SDS011;20721;47.402;8.550;2022-09-02T00:23:10;9.33;;;9.33;;
2710;SDS011;20721;47.402;8.550;2022-09-02T00:24:10;9.91;;;9.91;;
2710;SDS011;20721;47.402;8.550;2022-09-02T00:25:10;8.57;;;8.57;;
2710;SDS011;20721;47.402;8.550;2022-09-02T00:28:11;8.81;;;8.81;;
2710;SDS011;20721;47.402;8.550;2022-09-02T00:29:11;8.84;;;8.84;;
2710;SDS011;20721;47.402;8.550;2022-09-02T00:30:10;8.37;;;8.37;;
2710;SDS011;20721;47.402;8.550;2022-09-02T00:31:11;8.77;;;8.77;;
2710;SDS011;20721;47.402;8.550;2022-09-02T00:32:10;8.55;;;8.55;;
2710;SDS011;20721;47.402;8.550;2022-09-02T00:33:10;8.96;;;8.96;;
2710;SDS011;20721;47.402;8.550;2022-09-02T00:34:10;8.37;;;8.37;;
2710;SDS011;20721;47.402;8.550;2022-09-02T00:35:10;9.19;;;9.19;;
2710;SDS011;20721;47.402;8.550;2022-09-02T00:36:11;9.36;;;9.36;;
2710;SDS011;20721;47.402;8.550;2022-09-02T00:37:10;9.48;;;9.48;;
2710;SDS011;20721;47.402;8.550;2022-09-02T00:38:10;8.92;;;8.92;;
2710;SDS011;20721;47.402;8.550;2022-09-02T00:39:10;8.64;;;8.64;;
2710;SDS011;20721;47.402;8.550;2022-09-02T00:40:11;9.35;;;9.35;;
2710;SDS011;20721;47.402;8.550;2022-09-02T00:41:11;8.55;;;8.55;;
2710;SDS011;20721;47.402;8.550;2022-09-02T00:43:22;8.62;;;8.62;;
2710;SDS011;20721;47.402;8.550;2022-09-02T00:44:14;8.62;;;8.62;;
2710;SDS011;20721;47.402;8.550;2022-09-02T00:47:10;8.57;;;8.57;;
2710;SDS011;20721;47.402;8.550;2022-09-02T00:49:17;9.21;;;9.21;;
2710;SDS011;20721;47.402;8.550;2022-09-02T00:50:13;9.33;;;9.33;;
2710;SDS011;20721;47.402;8.550;2022-09-02T00:51:12;9.02;;;9.02;;
2710;SDS011;20721;47.402;8.550;2022-09-02T00:52:18;8.40;;;8.40;;
2710;SDS011;20721;47.402;8.550;2022-09-02T00:53:13;8.74;;;8.74;;
2710;SDS011;20721;47.402;8.550;2022-09-02T00:54:11;9.03;;;9.03;;
2710;SDS011;20721;47.402;8.550;2022-09-02T00:55:18;9.76;;;9.76;;
2710;SDS011;20721;47.402;8.550;2022-09-02T00:56:12;9.49;;;9.49;;
2710;SDS011;20721;47.402;8.550;2022-09-02T00:58:16;9.29;;;9.29;;
2710;SDS011;20721;47.402;8.550;2022-09-02T00:59:12;9.09;;;9.09;;
2710;SDS011;20721;47.402;8.550;2022-09-02T01:00:20;9.46;;;9.46;;
2710;SDS011;20721;47.402;8.550;2022-09-02T01:01:10;8.38;;;8.38;;
2710;SDS011;20721;47.402;8.550;2022-09-02T01:03:13;8.95;;;8.95;;
2710;SDS011;20721;47.402;8.550;2022-09-02T01:04:10;9.74;;;9.74;;
2710;SDS011;20721;47.402;8.550;2022-09-02T01:06:12;9.19;;;9.19;;
2710;SDS011;20721;47.402;8.550;2022-09-02T01:07:12;9.41;;;9.41;;
2710;SDS011;20721;47.402;8.550;2022-09-02T01:08:12;9.20;;;9.20;;
2710;SDS011;20721;47.402;8.550;2022-09-02T01:09:14;8.64;;;8.64;;
2710;SDS011;20721;47.402;8.550;2022-09-02T01:10:14;8.01;;;8.01;;
2710;SDS011;20721;47.402;8.550;2022-09-02T01:11:14;8.64;;;8.64;;
2710;SDS011;20721;47.402;8.550;2022-09-02T01:12:13;8.83;;;8.83;;
2710;SDS011;20721;47.402;8.550;2022-09-02T01:13:14;9.79;;;9.79;;
2710;SDS011;20721;47.402;8.550;2022-09-02T01:14:10;8.62;;;8.62;;
2710;SDS011;20721;47.402;8.550;2022-09-02T01:15:12;9.43;;;9.43;;
2710;SDS011;20721;47.402;8.550;2022-09-02T01:16:22;8.40;;;8.40;;
2710;SDS011;20721;47.402;8.550;2022-09-02T01:18:13;9.19;;;9.19;;
2710;SDS011;20721;47.402;8.550;2022-09-02T01:20:16;9.32;;;9.32;;
2710;SDS011;20721;47.402;8.550;2022-09-02T01:21:10;8.50;;;8.50;;
2710;SDS011;20721;47.402;8.550;2022-09-02T01:22:14;9.76;;;9.76;;
2710;SDS011;20721;47.402;8.550;2022-09-02T01:23:11;9.31;;;9.31;;
2710;SDS011;20721;47.402;8.550;2022-09-02T01:25:15;8.92;;;8.92;;
2710;SDS011;20721;47.402;8.550;2022-09-02T01:30:11;8.74;;;8.74;;
2710;SDS011;20721;47.402;8.550;2022-09-02T01:32:11;9.31;;;9.31;;
2710;SDS011;20721;47.402;8.550;2022-09-02T01:34:10;9.53;;;9.53;;
2710;SDS011;20721;47.402;8.550;2022-09-02T01:35:10;9.23;;;9.23;;
2710;SDS011;20721;47.402;8.550;2022-09-02T01:38:11;9.31;;;9.31;;
2710;SDS011;20721;47.402;8.550;2022-09-02T01:40:11;8.92;;;8.92;;
2710;SDS011;20721;47.402;8.550;2022-09-02T01:42:11;8.83;;;8.83;;
2710;SDS011;20721;47.402;8.550;2022-09-02T01:44:10;9.32;;;9.32;;
2710;SDS011;20721;47.402;8.550;2022-09-02T01:45:10;9.61;;;9.61;;
2710;SDS011;20721;47.402;8.550;2022-09-02T01:46:10;9.04;;;9.04;;
2710;SDS011;20721;47.402;8.550;2022-09-02T01:47:15;8.93;;;8.93;;
2710;SDS011;20721;47.402;8.550;2022-09-02T01:48:11;9.00;;;9.00;;
2710;SDS011;20721;47.402;8.550;2022-09-02T01:49:10;9.85;;;9.85;;
2710;SDS011;20721;47.402;8.550;2022-09-02T01:51:14;9.84;;;9.84;;
2710;SDS011;20721;47.402;8.550;2022-09-02T01:53:13;9.30;;;9.30;;
2710;SDS011;20721;47.402;8.550;2022-09-02T01:54:10;9.03;;;9.03;;
2710;SDS011;20721;47.402;8.550;2022-09-02T01:56:10;9.42;;;9.42;;
2710;SDS011;20721;47.402;8.550;2022-09-02T01:57:11;9.38;;;9.38;;
2710;SDS011;20721;47.402;8.550;2022-09-02T01:58:11;8.90;;;8.90;;
2710;SDS011;20721;47.402;8.550;2022-09-02T02:00:14;9.55;;;9.55;;
2710;SDS011;20721;47.402;8.550;2022-09-02T02:01:11;8.58;;;8.58;;
2710;SDS011;20721;47.402;8.550;2022-09-02T02:02:12;8.97;;;8.97;;
2710;SDS011;20721;47.402;8.550;2022-09-02T02:04:11;9.91;;;9.91;;
2710;SDS011;20721;47.402;8.550;2022-09-02T02:05:11;8.50;;;8.50;;
2710;SDS011;20721;47.402;8.550;2022-09-02T02:06:13;9.44;;;9.44;;
2710;SDS011;20721;47.402;8.550;2022-09-02T02:07:11;8.73;;;8.73;;
2710;SDS011;20721;47.402;8.550;2022-09-02T02:08:10;8.48;;;8.48;;
2710;SDS011;20721;47.402;8.550;2022-09-02T02:09:11;9.44;;;9.44;;
2710;SDS011;20721;47.402;8.550;2022-09-02T02:10:11;8.58;;;8.58;;
2710;SDS011;20721;47.402;8.550;2022-09-02T02:11:16;8.15;;;8.15;;
2710;SDS011;20721;47.402;8.550;2022-09-02T02:12:10;8.48;;;8.48;;
2710;SDS011;20721;47.402;8.550;2022-09-02T02:13:10;9.50;;;9.50;;
2710;SDS011;20721;47.402;8.550;2022-09-02T02:14:10;9.18;;;9.18;;
2710;SDS011;20721;47.402;8.550;2022-09-02T02:17:10;9.30;;;9.30;;
2710;SDS011;20721;47.402;8.550;2022-09-02T02:18:10;9.38;;;9.38;;
2710;SDS011;20721;47.402;8.550;2022-09-02T02:19:10;9.98;;;9.98;;
2710;SDS011;20721;47.402;8.550;2022-09-02T02:20:14;9.50;;;9.50;;
2710;SDS011;20721;47.402;8.550;2022-09-02T02:21:10;9.58;;;9.58;;
2710;SDS011;20721;47.402;8.550;2022-09-02T02:22:11;9.42;;;9.42;;
2710;SDS011;20721;47.402;8.550;2022-09-02T02:23:10;10.35;;;10.35;;
2710;SDS011;20721;47.402;8.550;2022-09-02T02:24:10;8.95;;;8.95;;
2710;SDS011;20721;47.402;8.550;2022-09-02T02:25:11;8.97;;;8.97;;
2710;SDS011;20721;47.402;8.550;2022-09-02T02:27:10;8.62;;;8.62;;
2710;SDS011;20721;47.402;8.550;2022-09-02T02:32:10;8.98;;;8.98;;
2710;SDS011;20721;47.402;8.550;2022-09-02T02:33:10;9.50;;;9.50;;
2710;SDS011;20721;47.402;8.550;2022-09-02T02:36:11;9.94;;;9.94;;
2710;SDS011;20721;47.402;8.550;2022-09-02T02:39:11;9.09;;;9.09;;
2710;SDS011;20721;47.402;8.550;2022-09-02T02:40:10;9.76;;;9.76;;
2710;SDS011;20721;47.402;8.550;2022-09-02T02:41:12;9.11;;;9.11;;
2710;SDS011;20721;47.402;8.550;2022-09-02T02:45:11;9.23;;;9.23;;
2710;SDS011;20721;47.402;8.550;2022-09-02T02:48:11;9.75;;;9.75;;
2710;SDS011;20721;47.402;8.550;2022-09-02T02:49:11;9.74;;;9.74;;
2710;SDS011;20721;47.402;8.550;2022-09-02T02:50:11;9.93;;;9.93;;
2710;SDS011;20721;47.402;8.550;2022-09-02T02:51:11;8.72;;;8.72;;
2710;SDS011;20721;47.402;8.550;2022-09-02T02:52:11;8.92;;;8.92;;
2710;SDS011;20721;47.402;8.550;2022-09-02T02:53:12;9.68;;;9.68;;
2710;SDS011;20721;47.402;8.550;2022-09-02T02:55:12;10.08;;;10.08;;
2710;SDS011;20721;47.402;8.550;2022-09-02T02:58:10;10.17;;;10.17;;
2710;SDS011;20721;47.402;8.550;2022-09-02T03:01:11;8.93;;;8.93;;
2710;SDS011;20721;47.402;8.550;2022-09-02T03:02:11;9.18;;;9.18;;
2710;SDS011;20721;47.402;8.550;2022-09-02T03:03:12;10.07;;;10.07;;
2710;SDS011;20721;47.402;8.550;2022-09-02T03:04:10;10.17;;;10.17;;
2710;SDS011;20721;47.402;8.550;2022-09-02T03:05:12;10.04;;;10.04;;
2710;SDS011;20721;47.402;8.550;2022-09-02T03:06:11;9.96;;;9.96;;
2710;SDS011;20721;47.402;8.550;2022-09-02T03:09:10;8.69;;;8.69;;
2710;SDS011;20721;47.402;8.550;2022-09-02T03:10:12;9.41;;;9.41;;
2710;SDS011;20721;47.402;8.550;2022-09-02T03:11:11;9.33;;;9.33;;
2710;SDS011;20721;47.402;8.550;2022-09-02T03:12:11;9.24;;;9.24;;
2710;SDS011;20721;47.402;8.550;2022-09-02T03:14:11;9.67;;;9.67;;
2710;SDS011;20721;47.402;8.550;2022-09-02T03:15:11;9.75;;;9.75;;
2710;SDS011;20721;47.402;8.550;2022-09-02T03:16:12;8.88;;;8.88;;
2710;SDS011;20721;47.402;8.550;2022-09-02T03:17:12;9.65;;;9.65;;
2710;SDS011;20721;47.402;8.550;2022-09-02T03:18:10;9.43;;;9.43;;
2710;SDS011;20721;47.402;8.550;2022-09-02T03:21:15;10.20;;;10.20;;
2710;SDS011;20721;47.402;8.550;2022-09-02T03:22:10;9.21;;;9.21;;
2710;SDS011;20721;47.402;8.550;2022-09-02T03:23:11;8.83;;;8.83;;
2710;SDS011;20721;47.402;8.550;2022-09-02T03:24:11;8.70;;;8.70;;
2710;SDS011;20721;47.402;8.550;2022-09-02T03:26:11;8.77;;;8.77;;
2710;SDS011;20721;47.402;8.550;2022-09-02T03:31:13;9.17;;;9.17;;
2710;SDS011;20721;47.402;8.550;2022-09-02T03:32:13;9.55;;;9.55;;
2710;SDS011;20721;47.402;8.550;2022-09-02T03:34:11;9.51;;;9.51;;
2710;SDS011;20721;47.402;8.550;2022-09-02T03:35:12;9.33;;;9.33;;
2710;SDS011;20721;47.402;8.550;2022-09-02T03:36:20;9.13;;;9.13;;
2710;SDS011;20721;47.402;8.550;2022-09-02T03:37:11;9.01;;;9.01;;
2710;SDS011;20721;47.402;8.550;2022-09-02T03:38:10;9.01;;;9.01;;
2710;SDS011;20721;47.402;8.550;2022-09-02T03:39:11;8.81;;;8.81;;
2710;SDS011;20721;47.402;8.550;2022-09-02T03:40:14;8.84;;;8.84;;
2710;SDS011;20721;47.402;8.550;2022-09-02T03:41:10;9.56;;;9.56;;
2710;SDS011;20721;47.402;8.550;2022-09-02T03:43:11;9.61;;;9.61;;
2710;SDS011;20721;47.402;8.550;2022-09-02T03:44:11;9.54;;;9.54;;
2710;SDS011;20721;47.402;8.550;2022-09-02T03:47:10;10.04;;;10.04;;
2710;SDS011;20721;47.402;8.550;2022-09-02T03:48:11;9.20;;;9.20;;
2710;SDS011;20721;47.402;8.550;2022-09-02T03:50:12;9.18;;;9.18;;
2710;SDS011;20721;47.402;8.550;2022-09-02T03:53:10;9.05;;;9.05;;
2710;SDS011;20721;47.402;8.550;2022-09-02T03:54:13;9.40;;;9.40;;
2710;SDS011;20721;47.402;8.550;2022-09-02T03:55:10;9.22;;;9.22;;
2710;SDS011;20721;47.402;8.550;2022-09-02T03:56:19;9.94;;;9.94;;
2710;SDS011;20721;47.402;8.550;2022-09-02T03:57:10;9.07;;;9.07;;
2710;SDS011;20721;47.402;8.550;2022-09-02T03:58:14;9.08;;;9.08;;
2710;SDS011;20721;47.402;8.550;2022-09-02T03:59:12;8.48;;;8.48;;
2710;SDS011;20721;47.402;8.550;2022-09-02T04:00:15;8.78;;;8.78;;
2710;SDS011;20721;47.402;8.550;2022-09-02T04:01:13;10.02;;;10.02;;
2710;SDS011;20721;47.402;8.550;2022-09-02T04:02:12;9.52;;;9.52;;
2710;SDS011;20721;47.402;8.550;2022-09-02T04:04:11;8.45;;;8.45;;
2710;SDS011;20721;47.402;8.550;2022-09-02T04:06:11;8.82;;;8.82;;
2710;SDS011;20721;47.402;8.550;2022-09-02T04:07:10;9.06;;;9.06;;
2710;SDS011;20721;47.402;8.550;2022-09-02T04:08:11;8.77;;;8.77;;
2710;SDS011;20721;47.402;8.550;2022-09-02T04:09:11;9.06;;;9.06;;
2710;SDS011;20721;47.402;8.550;2022-09-02T04:10:11;9.52;;;9.52;;
2710;SDS011;20721;47.402;8.550;2022-09-02T04:13:11;8.83;;;8.83;;
2710;SDS011;20721;47.402;8.550;2022-09-02T04:15:12;9.62;;;9.62;;
2710;SDS011;20721;47.402;8.550;2022-09-02T04:16:18;8.11;;;8.11;;
2710;SDS011;20721;47.402;8.550;2022-09-02T04:19:11;8.91;;;8.91;;
2710;SDS011;20721;47.402;8.550;2022-09-02T04:21:11;9.30;;;9.30;;
2710;SDS011;20721;47.402;8.550;2022-09-02T04:23:12;9.02;;;9.02;;
2710;SDS011;20721;47.402;8.550;2022-09-02T04:24:11;9.75;;;9.75;;
2710;SDS011;20721;47.402;8.550;2022-09-02T04:26:14;9.66;;;9.66;;
2710;SDS011;20721;47.402;8.550;2022-09-02T04:27:14;9.27;;;9.27;;
2710;SDS011;20721;47.402;8.550;2022-09-02T04:29:12;10.35;;;10.35;;
2710;SDS011;20721;47.402;8.550;2022-09-02T04:31:13;8.88;;;8.88;;
2710;SDS011;20721;47.402;8.550;2022-09-02T04:32:11;8.85;;;8.85;;
2710;SDS011;20721;47.402;8.550;2022-09-02T04:33:11;9.58;;;9.58;;
2710;SDS011;20721;47.402;8.550;2022-09-02T04:34:11;9.47;;;9.47;;
2710;SDS011;20721;47.402;8.550;2022-09-02T04:36:16;9.23;;;9.23;;
2710;SDS011;20721;47.402;8.550;2022-09-02T04:37:11;9.72;;;9.72;;
2710;SDS011;20721;47.402;8.550;2022-09-02T04:38:12;9.11;;;9.11;;
2710;SDS011;20721;47.402;8.550;2022-09-02T04:40:11;9.80;;;9.80;;
2710;SDS011;20721;47.402;8.550;2022-09-02T04:41:16;9.77;;;9.77;;
2710;SDS011;20721;47.402;8.550;2022-09-02T04:43:11;9.00;;;9.00;;
2710;SDS011;20721;47.402;8.550;2022-09-02T04:46:14;8.62;;;8.62;;
2710;SDS011;20721;47.402;8.550;2022-09-02T04:47:11;9.34;;;9.34;;
2710;SDS011;20721;47.402;8.550;2022-09-02T04:50:11;9.30;;;9.30;;
2710;SDS011;20721;47.402;8.550;2022-09-02T04:51:15;8.69;;;8.69;;
2710;SDS011;20721;47.402;8.550;2022-09-02T04:52:11;9.72;;;9.72;;
2710;SDS011;20721;47.402;8.550;2022-09-02T04:53:11;8.87;;;8.87;;
2710;SDS011;20721;47.402;8.550;2022-09-02T04:54:11;9.01;;;9.01;;
2710;SDS011;20721;47.402;8.550;2022-09-02T04:56:14;9.73;;;9.73;;
2710;SDS011;20721;47.402;8.550;2022-09-02T04:58:11;9.06;;;9.06;;
2710;SDS011;20721;47.402;8.550;2022-09-02T05:00:14;9.03;;;9.03;;
2710;SDS011;20721;47.402;8.550;2022-09-02T05:01:17;9.47;;;9.47;;
2710;SDS011;20721;47.402;8.550;2022-09-02T05:04:13;8.82;;;8.82;;
2710;SDS011;20721;47.402;8.550;2022-09-02T05:05:11;10.40;;;10.40;;
2710;SDS011;20721;47.402;8.550;2022-09-02T05:08:13;9.27;;;9.27;;
2710;SDS011;20721;47.402;8.550;2022-09-02T05:09:12;9.91;;;9.91;;
2710;SDS011;20721;47.402;8.550;2022-09-02T05:10:13;9.76;;;9.76;;
2710;SDS011;20721;47.402;8.550;2022-09-02T05:11:17;8.74;;;8.74;;
2710;SDS011;20721;47.402;8.550;2022-09-02T05:12:13;9.55;;;9.55;;
2710;SDS011;20721;47.402;8.550;2022-09-02T05:14:12;9.53;;;9.53;;
2710;SDS011;20721;47.402;8.550;2022-09-02T05:15:11;9.31;;;9.31;;
2710;SDS011;20721;47.402;8.550;2022-09-02T05:16:14;9.58;;;9.58;;
2710;SDS011;20721;47.402;8.550;2022-09-02T05:17:17;10.43;;;10.43;;
2710;SDS011;20721;47.402;8.550;2022-09-02T05:25:11;9.99;;;9.99;;
2710;SDS011;20721;47.402;8.550;2022-09-02T05:26:13;9.11;;;9.11;;
2710;SDS011;20721;47.402;8.550;2022-09-02T05:27:11;10.24;;;10.24;;
2710;SDS011;20721;47.402;8.550;2022-09-02T05:28:11;9.71;;;9.71;;
2710;SDS011;20721;47.402;8.550;2022-09-02T05:29:13;9.54;;;9.54;;
2710;SDS011;20721;47.402;8.550;2022-09-02T05:30:13;9.90;;;9.90;;
2710;SDS011;20721;47.402;8.550;2022-09-02T05:31:14;10.22;;;10.22;;
2710;SDS011;20721;47.402;8.550;2022-09-02T05:33:11;10.07;;;10.07;;
2710;SDS011;20721;47.402;8.550;2022-09-02T05:35:11;10.19;;;10.19;;
2710;SDS011;20721;47.402;8.550;2022-09-02T05:36:13;9.82;;;9.82;;
2710;SDS011;20721;47.402;8.550;2022-09-02T05:37:12;9.50;;;9.50;;
2710;SDS011;20721;47.402;8.550;2022-09-02T05:38:11;10.55;;;10.55;;
2710;SDS011;20721;47.402;8.550;2022-09-02T05:39:11;10.12;;;10.12;;
2710;SDS011;20721;47.402;8.550;2022-09-02T05:40:12;10.36;;;10.36;;
2710;SDS011;20721;47.402;8.550;2022-09-02T05:41:17;9.40;;;9.40;;
2710;SDS011;20721;47.402;8.550;2022-09-02T05:42:11;9.30;;;9.30;;
2710;SDS011;20721;47.402;8.550;2022-09-02T05:43:11;10.74;;;10.74;;
2710;SDS011;20721;47.402;8.550;2022-09-02T05:44:14;9.77;;;9.77;;
2710;SDS011;20721;47.402;8.550;2022-09-02T05:45:11;9.27;;;9.27;;
2710;SDS011;20721;47.402;8.550;2022-09-02T05:46:15;9.80;;;9.80;;
2710;SDS011;20721;47.402;8.550;2022-09-02T05:47:11;9.32;;;9.32;;
2710;SDS011;20721;47.402;8.550;2022-09-02T05:48:21;9.74;;;9.74;;
2710;SDS011;20721;47.402;8.550;2022-09-02T05:49:18;8.98;;;8.98;;
2710;SDS011;20721;47.402;8.550;2022-09-02T05:50:11;9.16;;;9.16;;
2710;SDS011;20721;47.402;8.550;2022-09-02T05:51:13;9.40;;;9.40;;
2710;SDS011;20721;47.402;8.550;2022-09-02T05:52:11;9.36;;;9.36;;
2710;SDS011;20721;47.402;8.550;2022-09-02T05:53:11;9.46;;;9.46;;
2710;SDS011;20721;47.402;8.550;2022-09-02T05:54:12;8.62;;;8.62;;
2710;SDS011;20721;47.402;8.550;2022-09-02T05:55:13;9.77;;;9.77;;
2710;SDS011;20721;47.402;8.550;2022-09-02T05:56:13;9.75;;;9.75;;
2710;SDS011;20721;47.402;8.550;2022-09-02T05:57:13;9.90;;;9.90;;
2710;SDS011;20721;47.402;8.550;2022-09-02T05:58:11;8.73;;;8.73;;
2710;SDS011;20721;47.402;8.550;2022-09-02T05:59:12;9.87;;;9.87;;
2710;SDS011;20721;47.402;8.550;2022-09-02T06:00:13;8.37;;;8.37;;
2710;SDS011;20721;47.402;8.550;2022-09-02T06:01:19;9.04;;;9.04;;
2710;SDS011;20721;47.402;8.550;2022-09-02T06:02:12;9.82;;;9.82;;
2710;SDS011;20721;47.402;8.550;2022-09-02T06:03:11;9.18;;;9.18;;
2710;SDS011;20721;47.402;8.550;2022-09-02T06:04:12;9.04;;;9.04;;
2710;SDS011;20721;47.402;8.550;2022-09-02T06:05:11;8.52;;;8.52;;
2710;SDS011;20721;47.402;8.550;2022-09-02T06:06:17;8.63;;;8.63;;
2710;SDS011;20721;47.402;8.550;2022-09-02T06:07:11;8.51;;;8.51;;
2710;SDS011;20721;47.402;8.550;2022-09-02T06:08:12;9.68;;;9.68;;
2710;SDS011;20721;47.402;8.550;2022-09-02T06:09:14;9.09;;;9.09;;
2710;SDS011;20721;47.402;8.550;2022-09-02T06:10:12;9.70;;;9.70;;
2710;SDS011;20721;47.402;8.550;2022-09-02T06:11:12;8.89;;;8.89;;
2710;SDS011;20721;47.402;8.550;2022-09-02T06:12:12;9.36;;;9.36;;
2710;SDS011;20721;47.402;8.550;2022-09-02T06:13:11;8.81;;;8.81;;
2710;SDS011;20721;47.402;8.550;2022-09-02T06:14:16;9.29;;;9.29;;
2710;SDS011;20721;47.402;8.550;2022-09-02T06:15:12;9.15;;;9.15;;
2710;SDS011;20721;47.402;8.550;2022-09-02T06:16:12;9.35;;;9.35;;
2710;SDS011;20721;47.402;8.550;2022-09-02T06:17:11;9.53;;;9.53;;
2710;SDS011;20721;47.402;8.550;2022-09-02T06:18:11;8.54;;;8.54;;
2710;SDS011;20721;47.402;8.550;2022-09-02T06:19:13;8.61;;;8.61;;
2710;SDS011;20721;47.402;8.550;2022-09-02T06:20:11;8.87;;;8.87;;
2710;SDS011;20721;47.402;8.550;2022-09-02T06:21:12;8.95;;;8.95;;
2710;SDS011;20721;47.402;8.550;2022-09-02T06:22:11;8.85;;;8.85;;
2710;SDS011;20721;47.402;8.550;2022-09-02T06:23:11;9.01;;;9.01;;
2710;SDS011;20721;47.402;8.550;2022-09-02T06:24:13;9.67;;;9.67;;
2710;SDS011;20721;47.402;8.550;2022-09-02T06:25:11;9.23;;;9.23;;
2710;SDS011;20721;47.402;8.550;2022-09-02T06:26:11;9.53;;;9.53;;
2710;SDS011;20721;47.402;8.550;2022-09-02T06:27:11;8.96;;;8.96;;
2710;SDS011;20721;47.402;8.550;2022-09-02T06:28:17;9.74;;;9.74;;
2710;SDS011;20721;47.402;8.550;2022-09-02T06:29:12;9.86;;;9.86;;
2710;SDS011;20721;47.402;8.550;2022-09-02T06:30:11;10.12;;;10.12;;
2710;SDS011;20721;47.402;8.550;2022-09-02T06:31:20;9.74;;;9.74;;
2710;SDS011;20721;47.402;8.550;2022-09-02T06:32:11;8.50;;;8.50;;
2710;SDS011;20721;47.402;8.550;2022-09-02T06:33:13;9.24;;;9.24;;
2710;SDS011;20721;47.402;8.550;2022-09-02T06:34:13;8.69;;;8.69;;
2710;SDS011;20721;47.402;8.550;2022-09-02T06:35:11;8.49;;;8.49;;
2710;SDS011;20721;47.402;8.550;2022-09-02T06:36:15;7.69;;;7.69;;
2710;SDS011;20721;47.402;8.550;2022-09-02T06:37:11;9.48;;;9.48;;
2710;SDS011;20721;47.402;8.550;2022-09-02T06:38:12;8.93;;;8.93;;
2710;SDS011;20721;47.402;8.550;2022-09-02T06:39:12;9.07;;;9.07;;
2710;SDS011;20721;47.402;8.550;2022-09-02T06:40:11;8.25;;;8.25;;
2710;SDS011;20721;47.402;8.550;2022-09-02T06:41:12;9.85;;;9.85;;
2710;SDS011;20721;47.402;8.550;2022-09-02T06:42:11;8.92;;;8.92;;
2710;SDS011;20721;47.402;8.550;2022-09-02T06:44:13;9.27;;;9.27;;
2710;SDS011;20721;47.402;8.550;2022-09-02T06:45:12;9.04;;;9.04;;
2710;SDS011;20721;47.402;8.550;2022-09-02T06:46:13;8.86;;;8.86;;
2710;SDS011;20721;47.402;8.550;2022-09-02T06:47:11;9.59;;;9.59;;
2710;SDS011;20721;47.402;8.550;2022-09-02T06:48:11;8.55;;;8.55;;
2710;SDS011;20721;47.402;8.550;2022-09-02T06:49:12;9.39;;;9.39;;
2710;SDS011;20721;47.402;8.550;2022-09-02T06:50:11;8.44;;;8.44;;
2710;SDS011;20721;47.402;8.550;2022-09-02T06:51:15;9.34;;;9.34;;
2710;SDS011;20721;47.402;8.550;2022-09-02T06:52:12;8.10;;;8.10;;
2710;SDS011;20721;47.402;8.550;2022-09-02T06:53:12;9.38;;;9.38;;
2710;SDS011;20721;47.402;8.550;2022-09-02T06:54:13;9.67;;;9.67;;
2710;SDS011;20721;47.402;8.550;2022-09-02T06:55:11;10.22;;;10.22;;
2710;SDS011;20721;47.402;8.550;2022-09-02T06:56:15;9.07;;;9.07;;
2710;SDS011;20721;47.402;8.550;2022-09-02T06:57:11;8.95;;;8.95;;
2710;SDS011;20721;47.402;8.550;2022-09-02T06:58:12;8.75;;;8.75;;
2710;SDS011;20721;47.402;8.550;2022-09-02T06:59:12;9.33;;;9.33;;
2710;SDS011;20721;47.402;8.550;2022-09-02T07:00:14;9.37;;;9.37;;
2710;SDS011;20721;47.402;8.550;2022-09-02T07:01:16;9.03;;;9.03;;
2710;SDS011;20721;47.402;8.550;2022-09-02T07:02:12;9.16;;;9.16;;
2710;SDS011;20721;47.402;8.550;2022-09-02T07:03:21;8.93;;;8.93;;
2710;SDS011;20721;47.402;8.550;2022-09-02T07:04:21;8.52;;;8.52;;
2710;SDS011;20721;47.402;8.550;2022-09-02T07:05:18;8.49;;;8.49;;
2710;SDS011;20721;47.402;8.550;2022-09-02T07:06:14;8.68;;;8.68;;
2710;SDS011;20721;47.402;8.550;2022-09-02T07:07:12;8.35;;;8.35;;
2710;SDS011;20721;47.402;8.550;2022-09-02T07:08:11;8.88;;;8.88;;
2710;SDS011;20721;47.402;8.550;2022-09-02T07:09:12;8.45;;;8.45;;
2710;SDS011;20721;47.402;8.550;2022-09-02T07:10:13;8.40;;;8.40;;
2710;SDS011;20721;47.402;8.550;2022-09-02T07:11:15;8.48;;;8.48;;
2710;SDS011;20721;47.402;8.550;2022-09-02T07:12:16;7.32;;;7.32;;
2710;SDS011;20721;47.402;8.550;2022-09-02T07:13:11;8.12;;;8.12;;
2710;SDS011;20721;47.402;8.550;2022-09-02T07:14:11;7.90;;;7.90;;
2710;SDS011;20721;47.402;8.550;2022-09-02T07:15:11;8.64;;;8.64;;
2710;SDS011;20721;47.402;8.550;2022-09-02T07:16:11;8.01;;;8.01;;
2710;SDS011;20721;47.402;8.550;2022-09-02T07:17:12;7.67;;;7.67;;
2710;SDS011;20721;47.402;8.550;2022-09-02T07:18:12;8.84;;;8.84;;
2710;SDS011;20721;47.402;8.550;2022-09-02T07:19:12;8.45;;;8.45;;
2710;SDS011;20721;47.402;8.550;2022-09-02T07:20:12;8.29;;;8.29;;
2710;SDS011;20721;47.402;8.550;2022-09-02T07:21:12;7.62;;;7.62;;
2710;SDS011;20721;47.402;8.550;2022-09-02T07:22:12;7.21;;;7.21;;
2710;SDS011;20721;47.402;8.550;2022-09-02T07:23:11;7.46;;;7.46;;
2710;SDS011;20721;47.402;8.550;2022-09-02T07:24:12;7.56;;;7.56;;
2710;SDS011;20721;47.402;8.550;2022-09-02T07:25:11;7.53;;;7.53;;
2710;SDS011;20721;47.402;8.550;2022-09-02T07:26:12;7.93;;;7.93;;
2710;SDS011;20721;47.402;8.550;2022-09-02T07:27:11;7.15;;;7.15;;
2710;SDS011;20721;47.402;8.550;2022-09-02T07:28:11;6.82;;;6.82;;
2710;SDS011;20721;47.402;8.550;2022-09-02T07:29:11;7.20;;;7.20;;
2710;SDS011;20721;47.402;8.550;2022-09-02T07:30:14;7.31;;;7.31;;
2710;SDS011;20721;47.402;8.550;2022-09-02T07:31:12;8.74;;;8.74;;
2710;SDS011;20721;47.402;8.550;2022-09-02T07:32:11;7.69;;;7.69;;
2710;SDS011;20721;47.402;8.550;2022-09-02T07:33:11;7.03;;;7.03;;
2710;SDS011;20721;47.402;8.550;2022-09-02T07:34:12;7.52;;;7.52;;
2710;SDS011;20721;47.402;8.550;2022-09-02T07:35:12;7.54;;;7.54;;
2710;SDS011;20721;47.402;8.550;2022-09-02T07:36:13;7.71;;;7.71;;
2710;SDS011;20721;47.402;8.550;2022-09-02T07:37:17;7.32;;;7.32;;
2710;SDS011;20721;47.402;8.550;2022-09-02T07:38:13;6.95;;;6.95;;
2710;SDS011;20721;47.402;8.550;2022-09-02T07:39:13;7.52;;;7.52;;
2710;SDS011;20721;47.402;8.550;2022-09-02T07:40:13;7.77;;;7.77;;
2710;SDS011;20721;47.402;8.550;2022-09-02T07:41:11;7.89;;;7.89;;
2710;SDS011;20721;47.402;8.550;2022-09-02T07:42:11;8.04;;;8.04;;
2710;SDS011;20721;47.402;8.550;2022-09-02T07:43:13;8.11;;;8.11;;
2710;SDS011;20721;47.402;8.550;2022-09-02T07:44:12;7.05;;;7.05;;
2710;SDS011;20721;47.402;8.550;2022-09-02T07:45:12;7.06;;;7.06;;
2710;SDS011;20721;47.402;8.550;2022-09-02T07:46:11;7.85;;;7.85;;
2710;SDS011;20721;47.402;8.550;2022-09-02T07:47:11;7.74;;;7.74;;
2710;SDS011;20721;47.402;8.550;2022-09-02T07:48:12;7.47;;;7.47;;
2710;SDS011;20721;47.402;8.550;2022-09-02T07:49:15;7.38;;;7.38;;
2710;SDS011;20721;47.402;8.550;2022-09-02T07:50:22;8.23;;;8.23;;
2710;SDS011;20721;47.402;8.550;2022-09-02T07:51:12;7.43;;;7.43;;
2710;SDS011;20721;47.402;8.550;2022-09-02T07:52:11;8.21;;;8.21;;
2710;SDS011;20721;47.402;8.550;2022-09-02T07:53:14;7.45;;;7.45;;
2710;SDS011;20721;47.402;8.550;2022-09-02T07:54:12;7.61;;;7.61;;
2710;SDS011;20721;47.402;8.550;2022-09-02T07:55:11;8.38;;;8.38;;